sensor_id;sensor_type;location;lat;lon;timestamp;P1;durP1;ratioP1;P2;durP2;ratioP2
78406;SDS011;67692;51.074;-1.790;2023-04-19T00:00:52;15.63;;;5.60;;
78406;SDS011;67692;51.074;-1.790;2023-04-19T00:03:18;11.90;;;5.68;;
78406;SDS011;67692;51.074;-1.790;2023-04-19T00:05:48;11.68;;;5.50;;
78406;SDS011;67692;51.074;-1.790;2023-04-19T00:08:18;12.60;;;5.30;;
78406;SDS011;67692;51.074;-1.790;2023-04-19T00:10:45;13.27;;;5.82;;
78406;SDS011;67692;51.074;-1.790;2023-04-19T00:13:13;13.63;;;5.57;;
78406;SDS011;67692;51.074;-1.790;2023-04-19T00:15:39;12.50;;;5.20;;
78406;SDS011;67692;51.074;-1.790;2023-04-19T00:18:06;17.08;;;5.38;;
78406;SDS011;67692;51.074;-1.790;2023-04-19T00:20:33;12.73;;;5.43;;
78406;SDS011;67692;51.074;-1.790;2023-04-19T00:23:00;11.27;;;5.05;;
78406;SDS011;67692;51.074;-1.790;2023-04-19T00:25:27;11.25;;;5.25;;
78406;SDS011;67692;51.074;-1.790;2023-04-19T00:27:55;15.25;;;5.30;;
78406;SDS011;67692;51.074;-1.790;2023-04-19T00:30:23;13.32;;;6.38;;
78406;SDS011;67692;51.074;-1.790;2023-04-19T00:32:50;15.18;;;6.38;;
78406;SDS011;67692;51.074;-1.790;2023-04-19T00:35:17;11.00;;;5.55;;
78406;SDS011;67692;51.074;-1.790;2023-04-19T00:37:43;10.07;;;5.05;;
78406;SDS011;67692;51.074;-1.790;2023-04-19T00:40:10;13.40;;;5.75;;
78406;SDS011;67692;51.074;-1.790;2023-04-19T00:42:37;16.50;;;5.22;;
78406;SDS011;67692;51.074;-1.790;2023-04-19T00:45:04;11.57;;;5.03;;
78406;SDS011;67692;51.074;-1.790;2023-04-19T00:47:32;14.35;;;5.32;;
78406;SDS011;67692;51.074;-1.790;2023-04-19T00:50:00;11.80;;;5.10;;
78406;SDS011;67692;51.074;-1.790;2023-04-19T00:52:27;14.10;;;5.32;;
78406;SDS011;67692;51.074;-1.790;2023-04-19T00:54:54;17.23;;;6.25;;
78406;SDS011;67692;51.074;-1.790;2023-04-19T00:57:23;13.95;;;5.90;;
78406;SDS011;67692;51.074;-1.790;2023-04-19T00:59:50;13.93;;;6.13;;
78406;SDS011;67692;51.074;-1.790;2023-04-19T01:02:17;13.85;;;5.85;;
78406;SDS011;67692;51.074;-1.790;2023-04-19T01:04:47;12.98;;;6.25;;
78406;SDS011;67692;51.074;-1.790;2023-04-19T01:07:13;16.00;;;6.30;;
78406;SDS011;67692;51.074;-1.790;2023-04-19T01:09:42;14.07;;;6.28;;
78406;SDS011;67692;51.074;-1.790;2023-04-19T01:12:08;16.15;;;6.50;;
78406;SDS011;67692;51.074;-1.790;2023-04-19T01:14:35;14.25;;;6.32;;
78406;SDS011;67692;51.074;-1.790;2023-04-19T01:17:01;17.83;;;6.30;;
78406;SDS011;67692;51.074;-1.790;2023-04-19T01:19:28;13.73;;;5.93;;
78406;SDS011;67692;51.074;-1.790;2023-04-19T01:21:56;15.70;;;6.82;;
78406;SDS011;67692;51.074;-1.790;2023-04-19T01:24:24;17.40;;;7.53;;
78406;SDS011;67692;51.074;-1.790;2023-04-19T01:26:51;22.42;;;7.72;;
78406;SDS011;67692;51.074;-1.790;2023-04-19T01:29:17;16.73;;;8.30;;
78406;SDS011;67692;51.074;-1.790;2023-04-19T01:31:46;14.55;;;7.25;;
78406;SDS011;67692;51.074;-1.790;2023-04-19T01:34:15;20.17;;;7.60;;
78406;SDS011;67692;51.074;-1.790;2023-04-19T01:36:42;23.95;;;9.10;;
78406;SDS011;67692;51.074;-1.790;2023-04-19T01:39:08;19.55;;;8.10;;
78406;SDS011;67692;51.074;-1.790;2023-04-19T01:41:37;19.80;;;8.82;;
78406;SDS011;67692;51.074;-1.790;2023-04-19T01:44:03;18.15;;;7.95;;
78406;SDS011;67692;51.074;-1.790;2023-04-19T01:46:30;24.08;;;8.45;;
78406;SDS011;67692;51.074;-1.790;2023-04-19T01:48:56;18.58;;;8.88;;
78406;SDS011;67692;51.074;-1.790;2023-04-19T01:51:23;18.80;;;8.90;;
78406;SDS011;67692;51.074;-1.790;2023-04-19T01:53:49;22.23;;;9.07;;
78406;SDS011;67692;51.074;-1.790;2023-04-19T01:56:17;21.75;;;9.02;;
78406;SDS011;67692;51.074;-1.790;2023-04-19T01:58:45;24.50;;;9.55;;
78406;SDS011;67692;51.074;-1.790;2023-04-19T02:01:12;23.20;;;9.95;;
78406;SDS011;67692;51.074;-1.790;2023-04-19T02:03:39;22.88;;;9.20;;
78406;SDS011;67692;51.074;-1.790;2023-04-19T02:06:08;27.95;;;10.98;;
78406;SDS011;67692;51.074;-1.790;2023-04-19T02:08:35;24.73;;;10.48;;
78406;SDS011;67692;51.074;-1.790;2023-04-19T02:11:04;21.42;;;10.00;;
78406;SDS011;67692;51.074;-1.790;2023-04-19T02:13:31;25.90;;;11.27;;
78406;SDS011;67692;51.074;-1.790;2023-04-19T02:15:59;26.20;;;11.10;;
78406;SDS011;67692;51.074;-1.790;2023-04-19T02:18:26;32.25;;;11.93;;
78406;SDS011;67692;51.074;-1.790;2023-04-19T02:20:53;26.88;;;10.80;;
78406;SDS011;67692;51.074;-1.790;2023-04-19T02:23:20;29.38;;;11.48;;
78406;SDS011;67692;51.074;-1.790;2023-04-19T02:25:46;28.98;;;11.45;;
78406;SDS011;67692;51.074;-1.790;2023-04-19T02:28:13;34.60;;;12.10;;
78406;SDS011;67692;51.074;-1.790;2023-04-19T02:30:40;24.00;;;10.52;;
78406;SDS011;67692;51.074;-1.790;2023-04-19T02:33:07;24.95;;;10.73;;
78406;SDS011;67692;51.074;-1.790;2023-04-19T02:35:34;25.75;;;10.48;;
78406;SDS011;67692;51.074;-1.790;2023-04-19T02:38:01;21.58;;;9.40;;
78406;SDS011;67692;51.074;-1.790;2023-04-19T02:40:28;28.15;;;11.38;;
78406;SDS011;67692;51.074;-1.790;2023-04-19T02:42:55;25.55;;;10.35;;
78406;SDS011;67692;51.074;-1.790;2023-04-19T02:45:22;25.30;;;10.45;;
78406;SDS011;67692;51.074;-1.790;2023-04-19T02:47:48;30.83;;;10.48;;
78406;SDS011;67692;51.074;-1.790;2023-04-19T02:50:16;26.48;;;10.30;;
78406;SDS011;67692;51.074;-1.790;2023-04-19T02:52:43;22.80;;;9.52;;
78406;SDS011;67692;51.074;-1.790;2023-04-19T02:55:09;28.83;;;9.38;;
78406;SDS011;67692;51.074;-1.790;2023-04-19T02:57:36;22.25;;;9.32;;
78406;SDS011;67692;51.074;-1.790;2023-04-19T03:00:03;24.38;;;10.55;;
78406;SDS011;67692;51.074;-1.790;2023-04-19T03:02:30;18.75;;;9.63;;
78406;SDS011;67692;51.074;-1.790;2023-04-19T03:04:57;24.40;;;10.15;;
78406;SDS011;67692;51.074;-1.790;2023-04-19T03:07:25;24.48;;;10.77;;
78406;SDS011;67692;51.074;-1.790;2023-04-19T03:09:51;24.98;;;10.02;;
78406;SDS011;67692;51.074;-1.790;2023-04-19T03:12:18;23.40;;;10.90;;
78406;SDS011;67692;51.074;-1.790;2023-04-19T03:14:45;29.75;;;11.00;;
78406;SDS011;67692;51.074;-1.790;2023-04-19T03:17:11;21.73;;;9.27;;
78406;SDS011;67692;51.074;-1.790;2023-04-19T03:19:38;28.67;;;11.05;;
78406;SDS011;67692;51.074;-1.790;2023-04-19T03:22:05;24.40;;;9.55;;
78406;SDS011;67692;51.074;-1.790;2023-04-19T03:24:33;27.40;;;10.20;;
78406;SDS011;67692;51.074;-1.790;2023-04-19T03:26:59;26.77;;;9.73;;
78406;SDS011;67692;51.074;-1.790;2023-04-19T03:29:26;23.50;;;10.05;;
78406;SDS011;67692;51.074;-1.790;2023-04-19T03:31:52;24.42;;;10.43;;
78406;SDS011;67692;51.074;-1.790;2023-04-19T03:34:19;24.50;;;10.13;;
78406;SDS011;67692;51.074;-1.790;2023-04-19T03:36:46;27.65;;;11.40;;
78406;SDS011;67692;51.074;-1.790;2023-04-19T03:39:12;22.90;;;10.00;;
78406;SDS011;67692;51.074;-1.790;2023-04-19T03:41:40;27.95;;;9.77;;
78406;SDS011;67692;51.074;-1.790;2023-04-19T03:44:07;26.23;;;10.90;;
78406;SDS011;67692;51.074;-1.790;2023-04-19T03:46:33;23.77;;;11.15;;
78406;SDS011;67692;51.074;-1.790;2023-04-19T03:49:00;24.67;;;10.32;;
78406;SDS011;67692;51.074;-1.790;2023-04-19T03:51:27;27.95;;;9.55;;
78406;SDS011;67692;51.074;-1.790;2023-04-19T03:53:53;27.00;;;10.25;;
78406;SDS011;67692;51.074;-1.790;2023-04-19T03:56:20;24.45;;;10.00;;
78406;SDS011;67692;51.074;-1.790;2023-04-19T03:58:49;29.83;;;10.82;;
78406;SDS011;67692;51.074;-1.790;2023-04-19T04:01:18;27.48;;;11.23;;
78406;SDS011;67692;51.074;-1.790;2023-04-19T04:03:45;23.55;;;8.80;;
78406;SDS011;67692;51.074;-1.790;2023-04-19T04:06:12;24.90;;;10.40;;
78406;SDS011;67692;51.074;-1.790;2023-04-19T04:08:39;24.00;;;10.27;;
78406;SDS011;67692;51.074;-1.790;2023-04-19T04:11:05;22.95;;;10.25;;
78406;SDS011;67692;51.074;-1.790;2023-04-19T04:13:32;26.58;;;10.48;;
78406;SDS011;67692;51.074;-1.790;2023-04-19T04:16:00;26.70;;;10.70;;
78406;SDS011;67692;51.074;-1.790;2023-04-19T04:18:26;25.30;;;9.35;;
78406;SDS011;67692;51.074;-1.790;2023-04-19T04:20:53;25.05;;;10.45;;
78406;SDS011;67692;51.074;-1.790;2023-04-19T04:23:20;25.85;;;10.85;;
78406;SDS011;67692;51.074;-1.790;2023-04-19T04:25:54;28.17;;;11.25;;
78406;SDS011;67692;51.074;-1.790;2023-04-19T04:28:23;22.10;;;9.20;;
78406;SDS011;67692;51.074;-1.790;2023-04-19T04:30:49;30.05;;;11.20;;
78406;SDS011;67692;51.074;-1.790;2023-04-19T04:33:18;23.95;;;9.93;;
78406;SDS011;67692;51.074;-1.790;2023-04-19T04:35:45;22.83;;;10.75;;
78406;SDS011;67692;51.074;-1.790;2023-04-19T04:38:11;27.67;;;10.10;;
78406;SDS011;67692;51.074;-1.790;2023-04-19T04:40:38;27.58;;;10.80;;
78406;SDS011;67692;51.074;-1.790;2023-04-19T04:43:05;25.30;;;10.38;;
78406;SDS011;67692;51.074;-1.790;2023-04-19T04:45:32;23.00;;;10.13;;
78406;SDS011;67692;51.074;-1.790;2023-04-19T04:47:59;28.23;;;11.23;;
78406;SDS011;67692;51.074;-1.790;2023-04-19T04:50:27;25.05;;;10.65;;
78406;SDS011;67692;51.074;-1.790;2023-04-19T04:52:54;21.65;;;10.65;;
78406;SDS011;67692;51.074;-1.790;2023-04-19T04:55:21;24.33;;;10.70;;
78406;SDS011;67692;51.074;-1.790;2023-04-19T04:57:47;24.52;;;11.18;;
78406;SDS011;67692;51.074;-1.790;2023-04-19T05:00:14;24.33;;;11.02;;
78406;SDS011;67692;51.074;-1.790;2023-04-19T05:02:41;22.98;;;10.70;;
78406;SDS011;67692;51.074;-1.790;2023-04-19T05:05:08;28.60;;;12.27;;
78406;SDS011;67692;51.074;-1.790;2023-04-19T05:07:37;29.20;;;11.25;;
78406;SDS011;67692;51.074;-1.790;2023-04-19T05:10:04;29.67;;;11.38;;
78406;SDS011;67692;51.074;-1.790;2023-04-19T05:12:32;25.33;;;11.57;;
78406;SDS011;67692;51.074;-1.790;2023-04-19T05:14:59;27.42;;;11.43;;
78406;SDS011;67692;51.074;-1.790;2023-04-19T05:17:25;32.10;;;12.43;;
78406;SDS011;67692;51.074;-1.790;2023-04-19T05:19:52;31.02;;;12.18;;
78406;SDS011;67692;51.074;-1.790;2023-04-19T05:22:19;27.15;;;11.80;;
78406;SDS011;67692;51.074;-1.790;2023-04-19T05:24:46;33.67;;;13.05;;
78406;SDS011;67692;51.074;-1.790;2023-04-19T05:27:14;24.88;;;11.57;;
78406;SDS011;67692;51.074;-1.790;2023-04-19T05:29:40;32.28;;;13.00;;
78406;SDS011;67692;51.074;-1.790;2023-04-19T05:32:07;28.42;;;11.70;;
78406;SDS011;67692;51.074;-1.790;2023-04-19T05:34:34;26.55;;;11.57;;
78406;SDS011;67692;51.074;-1.790;2023-04-19T05:37:01;31.15;;;13.00;;
78406;SDS011;67692;51.074;-1.790;2023-04-19T05:39:28;31.65;;;13.48;;
78406;SDS011;67692;51.074;-1.790;2023-04-19T05:41:56;32.75;;;14.90;;
78406;SDS011;67692;51.074;-1.790;2023-04-19T05:44:22;26.85;;;13.27;;
78406;SDS011;67692;51.074;-1.790;2023-04-19T05:46:49;29.17;;;13.93;;
78406;SDS011;67692;51.074;-1.790;2023-04-19T05:49:16;35.97;;;13.82;;
78406;SDS011;67692;51.074;-1.790;2023-04-19T05:51:42;30.45;;;13.85;;
78406;SDS011;67692;51.074;-1.790;2023-04-19T05:54:09;37.40;;;14.50;;
78406;SDS011;67692;51.074;-1.790;2023-04-19T05:56:38;29.48;;;12.82;;
78406;SDS011;67692;51.074;-1.790;2023-04-19T05:59:06;30.05;;;13.63;;
78406;SDS011;67692;51.074;-1.790;2023-04-19T06:01:35;29.95;;;14.02;;
78406;SDS011;67692;51.074;-1.790;2023-04-19T06:04:02;35.78;;;14.27;;
78406;SDS011;67692;51.074;-1.790;2023-04-19T06:06:29;31.40;;;13.95;;
78406;SDS011;67692;51.074;-1.790;2023-04-19T06:08:55;33.55;;;14.90;;
78406;SDS011;67692;51.074;-1.790;2023-04-19T06:11:22;28.70;;;13.07;;
78406;SDS011;67692;51.074;-1.790;2023-04-19T06:13:49;36.83;;;15.18;;
78406;SDS011;67692;51.074;-1.790;2023-04-19T06:16:17;29.52;;;13.60;;
78406;SDS011;67692;51.074;-1.790;2023-04-19T06:18:44;30.80;;;13.18;;
78406;SDS011;67692;51.074;-1.790;2023-04-19T06:21:11;35.60;;;14.50;;
78406;SDS011;67692;51.074;-1.790;2023-04-19T06:23:38;26.50;;;12.70;;
78406;SDS011;67692;51.074;-1.790;2023-04-19T06:26:04;32.20;;;13.38;;
78406;SDS011;67692;51.074;-1.790;2023-04-19T06:28:31;31.95;;;14.43;;
78406;SDS011;67692;51.074;-1.790;2023-04-19T06:30:57;30.08;;;13.73;;
78406;SDS011;67692;51.074;-1.790;2023-04-19T06:33:25;30.60;;;13.27;;
78406;SDS011;67692;51.074;-1.790;2023-04-19T06:35:52;31.25;;;14.18;;
78406;SDS011;67692;51.074;-1.790;2023-04-19T06:38:19;31.75;;;14.68;;
78406;SDS011;67692;51.074;-1.790;2023-04-19T06:40:46;31.02;;;13.80;;
78406;SDS011;67692;51.074;-1.790;2023-04-19T06:43:13;32.67;;;15.05;;
78406;SDS011;67692;51.074;-1.790;2023-04-19T06:45:39;34.17;;;13.68;;
78406;SDS011;67692;51.074;-1.790;2023-04-19T06:48:06;36.65;;;16.17;;
78406;SDS011;67692;51.074;-1.790;2023-04-19T06:50:34;33.88;;;14.10;;
78406;SDS011;67692;51.074;-1.790;2023-04-19T06:53:01;32.33;;;14.38;;
78406;SDS011;67692;51.074;-1.790;2023-04-19T06:55:27;38.72;;;15.68;;
78406;SDS011;67692;51.074;-1.790;2023-04-19T06:57:54;35.35;;;14.57;;
78406;SDS011;67692;51.074;-1.790;2023-04-19T07:00:21;35.38;;;15.73;;
78406;SDS011;67692;51.074;-1.790;2023-04-19T07:02:47;35.30;;;15.15;;
78406;SDS011;67692;51.074;-1.790;2023-04-19T07:05:14;30.55;;;14.98;;
78406;SDS011;67692;51.074;-1.790;2023-04-19T07:07:42;31.83;;;14.95;;
78406;SDS011;67692;51.074;-1.790;2023-04-19T07:10:09;31.13;;;15.23;;
78406;SDS011;67692;51.074;-1.790;2023-04-19T07:12:36;37.95;;;15.00;;
78406;SDS011;67692;51.074;-1.790;2023-04-19T07:15:04;34.45;;;16.95;;
78406;SDS011;67692;51.074;-1.790;2023-04-19T07:17:31;39.97;;;16.42;;
78406;SDS011;67692;51.074;-1.790;2023-04-19T07:19:59;39.45;;;16.42;;
78406;SDS011;67692;51.074;-1.790;2023-04-19T07:22:26;39.55;;;17.27;;
78406;SDS011;67692;51.074;-1.790;2023-04-19T07:24:54;39.72;;;17.33;;
78406;SDS011;67692;51.074;-1.790;2023-04-19T07:27:20;35.20;;;16.00;;
78406;SDS011;67692;51.074;-1.790;2023-04-19T07:29:47;38.90;;;16.10;;
78406;SDS011;67692;51.074;-1.790;2023-04-19T07:32:14;34.72;;;16.17;;
78406;SDS011;67692;51.074;-1.790;2023-04-19T07:34:40;36.17;;;16.23;;
78406;SDS011;67692;51.074;-1.790;2023-04-19T07:37:07;30.05;;;14.20;;
78406;SDS011;67692;51.074;-1.790;2023-04-19T07:39:34;35.22;;;15.57;;
78406;SDS011;67692;51.074;-1.790;2023-04-19T07:42:02;34.22;;;15.77;;
78406;SDS011;67692;51.074;-1.790;2023-04-19T07:44:29;33.25;;;15.57;;
78406;SDS011;67692;51.074;-1.790;2023-04-19T07:46:55;32.97;;;16.42;;
78406;SDS011;67692;51.074;-1.790;2023-04-19T07:49:22;32.05;;;15.35;;
78406;SDS011;67692;51.074;-1.790;2023-04-19T07:51:48;34.22;;;16.55;;
78406;SDS011;67692;51.074;-1.790;2023-04-19T07:54:15;34.83;;;16.02;;
78406;SDS011;67692;51.074;-1.790;2023-04-19T07:56:44;31.35;;;15.45;;
78406;SDS011;67692;51.074;-1.790;2023-04-19T07:59:12;37.25;;;16.50;;
78406;SDS011;67692;51.074;-1.790;2023-04-19T08:01:40;32.25;;;15.05;;
78406;SDS011;67692;51.074;-1.790;2023-04-19T08:04:07;35.58;;;16.02;;
78406;SDS011;67692;51.074;-1.790;2023-04-19T08:06:34;35.65;;;16.30;;
78406;SDS011;67692;51.074;-1.790;2023-04-19T08:09:03;35.70;;;16.02;;
78406;SDS011;67692;51.074;-1.790;2023-04-19T08:11:30;31.92;;;15.50;;
78406;SDS011;67692;51.074;-1.790;2023-04-19T08:13:57;28.73;;;14.35;;
78406;SDS011;67692;51.074;-1.790;2023-04-19T08:16:25;30.65;;;15.23;;
78406;SDS011;67692;51.074;-1.790;2023-04-19T08:18:52;36.92;;;16.92;;
78406;SDS011;67692;51.074;-1.790;2023-04-19T08:21:18;31.55;;;14.60;;
78406;SDS011;67692;51.074;-1.790;2023-04-19T08:23:45;29.88;;;16.02;;
78406;SDS011;67692;51.074;-1.790;2023-04-19T08:26:11;34.42;;;16.33;;
78406;SDS011;67692;51.074;-1.790;2023-04-19T08:28:38;30.83;;;14.55;;
78406;SDS011;67692;51.074;-1.790;2023-04-19T08:31:06;32.60;;;15.30;;
78406;SDS011;67692;51.074;-1.790;2023-04-19T08:33:34;35.03;;;14.65;;
78406;SDS011;67692;51.074;-1.790;2023-04-19T08:36:00;30.02;;;15.93;;
78406;SDS011;67692;51.074;-1.790;2023-04-19T08:38:27;33.38;;;15.65;;
78406;SDS011;67692;51.074;-1.790;2023-04-19T08:40:53;32.22;;;15.98;;
78406;SDS011;67692;51.074;-1.790;2023-04-19T08:43:20;29.45;;;13.45;;
78406;SDS011;67692;51.074;-1.790;2023-04-19T08:45:49;29.35;;;14.85;;
78406;SDS011;67692;51.074;-1.790;2023-04-19T08:48:16;30.48;;;14.73;;
78406;SDS011;67692;51.074;-1.790;2023-04-19T08:50:45;30.20;;;13.25;;
78406;SDS011;67692;51.074;-1.790;2023-04-19T08:53:12;29.70;;;13.35;;
78406;SDS011;67692;51.074;-1.790;2023-04-19T08:55:40;26.20;;;13.75;;
78406;SDS011;67692;51.074;-1.790;2023-04-19T08:58:08;32.78;;;15.27;;
78406;SDS011;67692;51.074;-1.790;2023-04-19T09:00:36;30.83;;;15.10;;
78406;SDS011;67692;51.074;-1.790;2023-04-19T09:03:05;32.47;;;14.70;;
78406;SDS011;67692;51.074;-1.790;2023-04-19T09:05:32;33.28;;;14.43;;
78406;SDS011;67692;51.074;-1.790;2023-04-19T09:08:10;30.05;;;13.50;;
78406;SDS011;67692;51.074;-1.790;2023-04-19T09:10:51;32.20;;;14.73;;
78406;SDS011;67692;51.074;-1.790;2023-04-19T09:13:18;27.83;;;13.40;;
78406;SDS011;67692;51.074;-1.790;2023-04-19T09:15:45;26.13;;;12.80;;
78406;SDS011;67692;51.074;-1.790;2023-04-19T09:18:12;27.08;;;13.10;;
78406;SDS011;67692;51.074;-1.790;2023-04-19T09:20:40;27.90;;;13.43;;
78406;SDS011;67692;51.074;-1.790;2023-04-19T09:23:09;30.75;;;14.07;;
78406;SDS011;67692;51.074;-1.790;2023-04-19T09:25:38;29.08;;;15.15;;
78406;SDS011;67692;51.074;-1.790;2023-04-19T09:28:08;30.60;;;14.00;;
78406;SDS011;67692;51.074;-1.790;2023-04-19T09:30:36;30.17;;;13.75;;
78406;SDS011;67692;51.074;-1.790;2023-04-19T09:33:03;27.90;;;13.88;;
78406;SDS011;67692;51.074;-1.790;2023-04-19T09:35:39;25.10;;;13.35;;
78406;SDS011;67692;51.074;-1.790;2023-04-19T09:38:07;33.80;;;13.27;;
78406;SDS011;67692;51.074;-1.790;2023-04-19T09:40:36;24.27;;;12.32;;
78406;SDS011;67692;51.074;-1.790;2023-04-19T09:43:03;23.23;;;12.07;;
78406;SDS011;67692;51.074;-1.790;2023-04-19T09:45:38;23.33;;;13.02;;
78406;SDS011;67692;51.074;-1.790;2023-04-19T09:48:06;28.25;;;12.90;;
78406;SDS011;67692;51.074;-1.790;2023-04-19T09:50:33;28.75;;;13.82;;
78406;SDS011;67692;51.074;-1.790;2023-04-19T09:53:00;25.58;;;12.15;;
78406;SDS011;67692;51.074;-1.790;2023-04-19T09:55:27;26.15;;;13.32;;
78406;SDS011;67692;51.074;-1.790;2023-04-19T09:57:56;24.95;;;12.40;;
78406;SDS011;67692;51.074;-1.790;2023-04-19T10:00:23;26.90;;;12.32;;
78406;SDS011;67692;51.074;-1.790;2023-04-19T10:02:50;26.58;;;12.40;;
78406;SDS011;67692;51.074;-1.790;2023-04-19T10:05:21;26.92;;;12.50;;
78406;SDS011;67692;51.074;-1.790;2023-04-19T10:07:49;21.02;;;10.85;;
78406;SDS011;67692;51.074;-1.790;2023-04-19T10:10:16;27.00;;;11.10;;
78406;SDS011;67692;51.074;-1.790;2023-04-19T10:12:43;23.40;;;11.00;;
78406;SDS011;67692;51.074;-1.790;2023-04-19T10:15:14;20.45;;;11.00;;
78406;SDS011;67692;51.074;-1.790;2023-04-19T10:17:41;22.13;;;10.57;;
78406;SDS011;67692;51.074;-1.790;2023-04-19T10:20:09;23.80;;;10.75;;
78406;SDS011;67692;51.074;-1.790;2023-04-19T10:22:42;17.85;;;10.13;;
78406;SDS011;67692;51.074;-1.790;2023-04-19T10:25:10;19.30;;;9.90;;
78406;SDS011;67692;51.074;-1.790;2023-04-19T10:27:37;24.52;;;11.32;;
78406;SDS011;67692;51.074;-1.790;2023-04-19T10:30:04;20.45;;;10.20;;
78406;SDS011;67692;51.074;-1.790;2023-04-19T10:32:38;19.73;;;10.07;;
78406;SDS011;67692;51.074;-1.790;2023-04-19T10:35:06;26.77;;;10.93;;
78406;SDS011;67692;51.074;-1.790;2023-04-19T10:37:33;22.70;;;11.25;;
78406;SDS011;67692;51.074;-1.790;2023-04-19T10:40:05;19.55;;;9.60;;
78406;SDS011;67692;51.074;-1.790;2023-04-19T10:45:36;20.48;;;10.30;;
78406;SDS011;67692;51.074;-1.790;2023-04-19T10:48:05;16.42;;;9.10;;
78406;SDS011;67692;51.074;-1.790;2023-04-19T10:56:11;19.08;;;8.75;;
78406;SDS011;67692;51.074;-1.790;2023-04-19T11:01:49;15.52;;;8.05;;
78406;SDS011;67692;51.074;-1.790;2023-04-19T11:04:19;17.40;;;8.23;;
78406;SDS011;67692;51.074;-1.790;2023-04-19T11:06:57;16.10;;;8.35;;
78406;SDS011;67692;51.074;-1.790;2023-04-19T11:09:26;15.75;;;7.63;;
78406;SDS011;67692;51.074;-1.790;2023-04-19T11:11:56;17.85;;;7.72;;
78406;SDS011;67692;51.074;-1.790;2023-04-19T11:14:24;15.60;;;7.63;;
78406;SDS011;67692;51.074;-1.790;2023-04-19T11:16:51;15.73;;;7.88;;
78406;SDS011;67692;51.074;-1.790;2023-04-19T11:19:19;17.75;;;7.50;;
78406;SDS011;67692;51.074;-1.790;2023-04-19T11:21:45;14.32;;;7.88;;
78406;SDS011;67692;51.074;-1.790;2023-04-19T11:24:13;17.17;;;7.32;;
78406;SDS011;67692;51.074;-1.790;2023-04-19T11:26:42;9.50;;;5.40;;
78406;SDS011;67692;51.074;-1.790;2023-04-19T11:29:09;13.77;;;6.82;;
78406;SDS011;67692;51.074;-1.790;2023-04-19T11:31:36;17.23;;;7.88;;
78406;SDS011;67692;51.074;-1.790;2023-04-19T11:34:03;18.10;;;7.88;;
78406;SDS011;67692;51.074;-1.790;2023-04-19T11:36:32;15.32;;;7.20;;
78406;SDS011;67692;51.074;-1.790;2023-04-19T11:41:27;13.20;;;5.65;;
78406;SDS011;67692;51.074;-1.790;2023-04-19T11:43:54;11.52;;;5.80;;
78406;SDS011;67692;51.074;-1.790;2023-04-19T11:46:21;12.90;;;5.85;;
78406;SDS011;67692;51.074;-1.790;2023-04-19T11:48:51;10.45;;;5.60;;
78406;SDS011;67692;51.074;-1.790;2023-04-19T11:51:18;10.40;;;5.78;;
78406;SDS011;67692;51.074;-1.790;2023-04-19T11:53:47;13.65;;;6.40;;
78406;SDS011;67692;51.074;-1.790;2023-04-19T11:56:13;15.32;;;6.20;;
78406;SDS011;67692;51.074;-1.790;2023-04-19T11:58:41;15.27;;;6.40;;
78406;SDS011;67692;51.074;-1.790;2023-04-19T12:01:09;15.73;;;5.55;;
78406;SDS011;67692;51.074;-1.790;2023-04-19T12:03:39;12.75;;;6.13;;
78406;SDS011;67692;51.074;-1.790;2023-04-19T12:06:09;13.63;;;6.28;;
78406;SDS011;67692;51.074;-1.790;2023-04-19T12:08:38;12.77;;;6.95;;
78406;SDS011;67692;51.074;-1.790;2023-04-19T12:11:09;14.98;;;7.03;;
78406;SDS011;67692;51.074;-1.790;2023-04-19T12:13:36;12.80;;;6.70;;
78406;SDS011;67692;51.074;-1.790;2023-04-19T12:16:04;13.48;;;6.32;;
78406;SDS011;67692;51.074;-1.790;2023-04-19T12:18:41;12.65;;;6.40;;
78406;SDS011;67692;51.074;-1.790;2023-04-19T12:21:09;13.88;;;6.97;;
78406;SDS011;67692;51.074;-1.790;2023-04-19T12:23:36;12.13;;;6.20;;
78406;SDS011;67692;51.074;-1.790;2023-04-19T12:26:03;14.23;;;6.53;;
78406;SDS011;67692;51.074;-1.790;2023-04-19T12:28:32;12.63;;;5.97;;
78406;SDS011;67692;51.074;-1.790;2023-04-19T12:30:58;13.95;;;6.43;;
78406;SDS011;67692;51.074;-1.790;2023-04-19T12:33:25;12.48;;;6.00;;
78406;SDS011;67692;51.074;-1.790;2023-04-19T12:35:51;12.20;;;5.70;;
78406;SDS011;67692;51.074;-1.790;2023-04-19T12:38:18;11.90;;;6.13;;
78406;SDS011;67692;51.074;-1.790;2023-04-19T12:40:44;13.50;;;6.00;;
78406;SDS011;67692;51.074;-1.790;2023-04-19T12:43:11;13.55;;;6.10;;
78406;SDS011;67692;51.074;-1.790;2023-04-19T12:45:39;11.20;;;5.97;;
78406;SDS011;67692;51.074;-1.790;2023-04-19T12:48:05;12.55;;;6.30;;
78406;SDS011;67692;51.074;-1.790;2023-04-19T12:50:32;13.45;;;6.13;;
78406;SDS011;67692;51.074;-1.790;2023-04-19T12:52:59;16.63;;;6.25;;
78406;SDS011;67692;51.074;-1.790;2023-04-19T12:55:25;13.90;;;6.53;;
78406;SDS011;67692;51.074;-1.790;2023-04-19T12:57:52;14.70;;;5.72;;
78406;SDS011;67692;51.074;-1.790;2023-04-19T13:00:19;13.07;;;5.90;;
78406;SDS011;67692;51.074;-1.790;2023-04-19T13:02:47;13.00;;;6.53;;
78406;SDS011;67692;51.074;-1.790;2023-04-19T13:05:13;12.25;;;5.75;;
78406;SDS011;67692;51.074;-1.790;2023-04-19T13:07:40;14.68;;;5.60;;
78406;SDS011;67692;51.074;-1.790;2023-04-19T13:10:07;13.77;;;6.05;;
78406;SDS011;67692;51.074;-1.790;2023-04-19T13:12:34;13.05;;;6.15;;
78406;SDS011;67692;51.074;-1.790;2023-04-19T13:15:01;11.35;;;5.35;;
78406;SDS011;67692;51.074;-1.790;2023-04-19T13:17:27;9.57;;;5.32;;
78406;SDS011;67692;51.074;-1.790;2023-04-19T13:19:55;11.75;;;4.93;;
78406;SDS011;67692;51.074;-1.790;2023-04-19T13:22:22;13.57;;;6.28;;
78406;SDS011;67692;51.074;-1.790;2023-04-19T13:24:48;11.57;;;5.43;;
78406;SDS011;67692;51.074;-1.790;2023-04-19T13:27:15;9.88;;;5.15;;
78406;SDS011;67692;51.074;-1.790;2023-04-19T13:29:42;10.80;;;4.90;;
78406;SDS011;67692;51.074;-1.790;2023-04-19T13:32:08;9.68;;;5.40;;
78406;SDS011;67692;51.074;-1.790;2023-04-19T13:34:36;10.82;;;6.25;;
78406;SDS011;67692;51.074;-1.790;2023-04-19T13:37:04;12.73;;;5.38;;
78406;SDS011;67692;51.074;-1.790;2023-04-19T13:39:31;9.15;;;5.03;;
78406;SDS011;67692;51.074;-1.790;2023-04-19T13:41:58;13.15;;;5.78;;
78406;SDS011;67692;51.074;-1.790;2023-04-19T13:44:26;12.10;;;5.45;;
78406;SDS011;67692;51.074;-1.790;2023-04-19T13:46:52;10.88;;;4.93;;
78406;SDS011;67692;51.074;-1.790;2023-04-19T13:49:19;12.70;;;5.53;;
78406;SDS011;67692;51.074;-1.790;2023-04-19T13:51:45;13.60;;;4.97;;
78406;SDS011;67692;51.074;-1.790;2023-04-19T13:54:13;10.32;;;4.55;;
78406;SDS011;67692;51.074;-1.790;2023-04-19T13:56:41;9.93;;;4.82;;
78406;SDS011;67692;51.074;-1.790;2023-04-19T13:59:08;11.80;;;5.15;;
78406;SDS011;67692;51.074;-1.790;2023-04-19T14:01:35;9.30;;;4.75;;
78406;SDS011;67692;51.074;-1.790;2023-04-19T14:04:01;9.45;;;5.32;;
78406;SDS011;67692;51.074;-1.790;2023-04-19T14:06:28;10.95;;;4.60;;
78406;SDS011;67692;51.074;-1.790;2023-04-19T14:08:56;9.93;;;4.50;;
78406;SDS011;67692;51.074;-1.790;2023-04-19T14:11:25;11.48;;;4.68;;
78406;SDS011;67692;51.074;-1.790;2023-04-19T14:13:51;8.73;;;4.00;;
78406;SDS011;67692;51.074;-1.790;2023-04-19T14:16:18;8.57;;;4.03;;
78406;SDS011;67692;51.074;-1.790;2023-04-19T14:18:48;8.70;;;4.05;;
78406;SDS011;67692;51.074;-1.790;2023-04-19T14:21:14;10.25;;;3.80;;
78406;SDS011;67692;51.074;-1.790;2023-04-19T14:23:41;9.18;;;3.88;;
78406;SDS011;67692;51.074;-1.790;2023-04-19T14:26:07;9.77;;;3.67;;
78406;SDS011;67692;51.074;-1.790;2023-04-19T14:28:35;8.48;;;3.47;;
78406;SDS011;67692;51.074;-1.790;2023-04-19T14:31:02;8.30;;;3.40;;